createdAt,value
2018-07-08T00:01:52.637Z,98283.19
2018-07-08T00:04:21.842Z,98285.87
2018-07-08T00:06:54.755Z,98288.56
2018-07-08T00:09:23.983Z,98285.41
2018-07-08T00:11:53.198Z,98292.21
2018-07-08T00:14:22.451Z,98291.67
2018-07-08T00:16:51.664Z,98286.92
2018-07-08T00:19:20.851Z,98289.98
2018-07-08T00:21:50.073Z,98291.05
2018-07-08T00:24:19.330Z,98290.25
2018-07-08T00:26:48.562Z,98295.88
2018-07-08T00:29:17.746Z,98296.89
2018-07-08T00:31:46.971Z,98300.09
2018-07-08T00:34:16.163Z,98296.86
2018-07-08T00:36:45.363Z,98291.56
2018-07-08T00:39:14.603Z,98300.22
2018-07-08T00:41:43.589Z,98299.97
2018-07-08T00:44:12.797Z,98295.48
2018-07-08T00:46:42.023Z,98295.98
2018-07-08T00:49:11.296Z,98291.95
2018-07-08T00:51:40.503Z,98296.84
2018-07-08T00:54:09.727Z,98297.62
2018-07-08T00:56:38.940Z,98298.47
2018-07-08T00:59:08.263Z,98296.84
2018-07-08T01:01:37.490Z,98293.72
2018-07-08T01:04:06.709Z,98290.22
2018-07-08T01:06:35.994Z,98299.41
2018-07-08T01:09:06.209Z,98300.77
2018-07-08T01:11:35.467Z,98303.75
2018-07-08T01:14:04.655Z,98302.68
2018-07-08T01:16:33.890Z,98298.38
2018-07-08T01:19:03.089Z,98287.94
2018-07-08T01:21:32.299Z,98299.73
2018-07-08T01:24:01.515Z,98300.55
2018-07-08T01:26:31.005Z,98301.95
2018-07-08T01:29:00.202Z,98305.70
2018-07-08T01:31:29.419Z,98299.53
2018-07-08T01:33:58.671Z,98299.05
2018-07-08T01:36:27.882Z,98305.47
2018-07-08T01:38:57.094Z,98301.42
2018-07-08T01:41:26.296Z,98296.06
2018-07-08T01:43:55.594Z,98293.68
2018-07-08T01:46:24.804Z,98289.38
2018-07-08T01:48:54.103Z,98296.66
2018-07-08T01:51:23.339Z,98289.94
2018-07-08T01:53:52.830Z,98292.35
2018-07-08T01:56:22.031Z,98297.20
2018-07-08T01:58:51.398Z,98293.42
2018-07-08T02:01:20.591Z,98294.73
2018-07-08T02:03:49.856Z,98294.99
2018-07-08T02:06:19.047Z,98293.91
2018-07-08T02:08:48.542Z,98298.44
2018-07-08T02:11:17.787Z,98301.36
2018-07-08T02:13:46.786Z,98300.30
2018-07-08T02:16:15.779Z,98297.30
2018-07-08T02:18:45.352Z,98296.70
2018-07-08T02:21:14.567Z,98301.27
2018-07-08T02:23:43.951Z,98302.08
2018-07-08T02:26:13.172Z,98300.20
2018-07-08T02:28:42.504Z,98300.47
2018-07-08T02:31:11.678Z,98304.23
2018-07-08T02:33:40.895Z,98299.67
2018-07-08T02:36:10.121Z,98303.20
2018-07-08T02:38:39.342Z,98302.09
2018-07-08T02:41:08.595Z,98305.08
2018-07-08T02:43:37.817Z,98301.59
2018-07-08T02:46:07.083Z,98312.66
2018-07-08T02:48:36.298Z,98308.59
2018-07-08T02:51:05.519Z,98304.31
2018-07-08T02:53:34.726Z,98301.60
2018-07-08T02:56:03.961Z,98305.89
2018-07-08T02:58:33.268Z,98304.78
2018-07-08T03:01:02.562Z,98305.89
2018-07-08T03:03:31.902Z,98308.84
2018-07-08T03:06:01.191Z,98305.08
2018-07-08T03:08:30.395Z,98305.34
2018-07-08T03:10:59.624Z,98302.16
2018-07-08T03:13:28.937Z,98300.56
2018-07-08T03:15:58.231Z,98300.30
2018-07-08T03:18:27.508Z,98297.92
2018-07-08T03:20:56.733Z,98297.66
2018-07-08T03:23:25.931Z,98295.80
2018-07-08T03:25:55.159Z,98300.13
2018-07-08T03:28:24.366Z,98303.91
2018-07-08T03:30:53.763Z,98309.55
2018-07-08T03:33:23.193Z,98309.56
2018-07-08T03:35:52.450Z,98305.84
2018-07-08T03:38:22.096Z,98301.27
2018-07-08T03:40:51.395Z,98300.73
2018-07-08T03:43:20.948Z,98297.27
2018-07-08T03:45:49.934Z,98305.59
2018-07-08T03:48:19.159Z,98303.73
2018-07-08T03:50:48.471Z,98304.80
2018-07-08T03:53:17.686Z,98304.52
2018-07-08T03:55:46.959Z,98306.41
2018-07-08T03:58:16.175Z,98306.94
2018-07-08T04:00:45.510Z,98306.12
2018-07-08T04:03:14.724Z,98307.45
2018-07-08T04:05:43.926Z,98307.48
2018-07-08T04:08:13.124Z,98306.94
2018-07-08T04:10:42.331Z,98306.67
2018-07-08T04:13:11.554Z,98308.55
2018-07-08T04:15:40.763Z,98302.63
2018-07-08T04:18:10.220Z,98305.29
2018-07-08T04:20:40.155Z,98306.09
2018-07-08T04:23:09.529Z,98303.65
2018-07-08T04:25:38.738Z,98303.34
2018-07-08T04:28:07.935Z,98307.08
2018-07-08T04:30:37.135Z,98309.24
2018-07-08T04:33:06.491Z,98314.05
2018-07-08T04:35:35.690Z,98312.41
2018-07-08T04:38:04.927Z,98316.13
2018-07-08T04:40:34.143Z,98319.11
2018-07-08T04:43:03.366Z,98323.36
2018-07-08T04:45:32.628Z,98323.03
2018-07-08T04:48:01.838Z,98314.87
2018-07-08T04:50:31.038Z,98316.20
2018-07-08T04:53:00.237Z,98320.86
2018-07-08T04:55:29.442Z,98320.31
2018-07-08T04:57:58.672Z,98319.10
2018-07-08T05:00:27.920Z,98318.25
2018-07-08T05:02:56.882Z,98323.44
2018-07-08T05:05:26.067Z,98316.66
2018-07-08T05:07:55.322Z,98325.69
2018-07-08T05:10:24.585Z,98324.44
2018-07-08T05:12:53.545Z,98323.52
2018-07-08T05:15:22.738Z,98328.58
2018-07-08T05:17:51.938Z,98329.77
2018-07-08T05:20:21.197Z,98331.22
2018-07-08T05:22:50.377Z,98326.43
2018-07-08T05:25:19.583Z,98332.74
2018-07-08T05:27:48.838Z,98333.18
2018-07-08T05:30:17.798Z,98336.21
2018-07-08T05:32:47.027Z,98337.09
2018-07-08T05:35:16.242Z,98338.07
2018-07-08T05:37:45.465Z,98341.73
2018-07-08T05:40:14.662Z,98343.58
2018-07-08T05:42:43.879Z,98343.55
2018-07-08T05:45:13.154Z,98345.36
2018-07-08T05:47:42.362Z,98348.91
2018-07-08T05:50:11.681Z,98348.95
2018-07-08T05:52:40.822Z,98342.94
2018-07-08T05:55:10.115Z,98342.10
2018-07-08T05:57:39.300Z,98347.74
2018-07-08T06:00:08.963Z,98351.16
2018-07-08T06:02:38.194Z,98347.33
2018-07-08T06:05:07.459Z,98351.77
2018-07-08T06:07:36.841Z,98354.04
2018-07-08T06:10:06.243Z,98354.14
2018-07-08T06:12:35.568Z,98350.67
2018-07-08T06:15:04.967Z,98345.69
2018-07-08T06:17:34.194Z,98351.04
2018-07-08T06:20:03.446Z,98351.12
2018-07-08T06:22:32.678Z,98361.04
2018-07-08T06:25:01.810Z,98347.48
2018-07-08T06:27:31.249Z,98356.55
2018-07-08T06:30:00.553Z,98355.50
2018-07-08T06:32:29.597Z,98359.57
2018-07-08T06:34:58.902Z,98363.33
2018-07-08T06:37:28.305Z,98362.72
2018-07-08T06:39:57.587Z,98362.33
2018-07-08T06:42:26.948Z,98358.09
2018-07-08T06:44:56.298Z,98360.13
2018-07-08T06:47:25.615Z,98359.98
2018-07-08T06:49:54.921Z,98359.69
2018-07-08T06:52:24.331Z,98361.05
2018-07-08T06:54:53.643Z,98361.03
2018-07-08T06:57:22.936Z,98356.55
2018-07-08T06:59:52.340Z,98356.52
2018-07-08T07:02:21.610Z,98357.47
2018-07-08T07:04:50.925Z,98360.34
2018-07-08T07:07:20.267Z,98357.55
2018-07-08T07:09:49.640Z,98358.52
2018-07-08T07:12:19.859Z,98361.79
2018-07-08T07:14:48.998Z,98353.70
2018-07-08T07:17:18.468Z,98355.08
2018-07-08T07:19:47.915Z,98357.02
2018-07-08T07:22:17.242Z,98353.11
2018-07-08T07:24:46.576Z,98356.46
2018-07-08T07:27:15.985Z,98355.51
2018-07-08T07:29:45.431Z,98348.83
2018-07-08T07:32:14.530Z,98348.91
2018-07-08T07:34:43.904Z,98358.48
2018-07-08T07:37:13.181Z,98353.45
2018-07-08T07:39:42.586Z,98355.70
2018-07-08T07:42:11.985Z,98360.84
2018-07-08T07:44:41.340Z,98355.79
2018-07-08T07:47:10.624Z,98354.23
2018-07-08T07:49:40.045Z,98351.69
2018-07-08T07:52:09.320Z,98345.97
2018-07-08T07:54:38.703Z,98353.67
2018-07-08T07:57:08.055Z,98353.92
2018-07-08T07:59:37.363Z,98354.31
2018-07-08T08:02:06.982Z,98355.53
2018-07-08T08:04:36.358Z,98351.77
2018-07-08T08:07:05.855Z,98345.55
2018-07-08T08:09:35.127Z,98347.45
2018-07-08T08:12:04.483Z,98349.33
2018-07-08T08:14:33.828Z,98342.50
2018-07-08T08:17:03.193Z,98345.98
2018-07-08T08:19:39.311Z,98347.97
2018-07-08T08:22:08.625Z,98341.63
2018-07-08T08:24:37.873Z,98342.86
2018-07-08T08:27:07.324Z,98340.59
2018-07-08T08:29:36.619Z,98344.63
2018-07-08T08:32:05.968Z,98349.12
2018-07-08T08:34:52.471Z,98338.84
2018-07-08T08:37:23.225Z,98344.79
2018-07-08T08:39:53.390Z,98343.48
2018-07-08T08:42:22.518Z,98336.84
2018-07-08T08:44:52.395Z,98342.91
2018-07-08T08:47:22.048Z,98338.91
2018-07-08T08:49:52.014Z,98351.28
2018-07-08T08:52:21.383Z,98349.08
2018-07-08T08:54:51.210Z,98350.83
2018-07-08T08:57:20.659Z,98354.42
2018-07-08T08:59:49.937Z,98350.86
2018-07-08T09:02:19.331Z,98349.20
2018-07-08T09:04:52.217Z,98347.92
2018-07-08T09:07:22.372Z,98348.38
2018-07-08T09:09:57.324Z,98342.97
2018-07-08T09:12:28.916Z,98338.56
2018-07-08T09:14:58.369Z,98341.17
2018-07-08T09:17:27.704Z,98333.88
2018-07-08T09:19:58.734Z,98334.72
2018-07-08T09:22:29.196Z,98341.34
2018-07-08T09:25:00.579Z,98337.48
2018-07-08T09:27:31.214Z,98328.50
2018-07-08T09:30:01.546Z,98333.80
2018-07-08T09:32:31.063Z,98343.12
2018-07-08T09:35:03.061Z,98341.28
2018-07-08T09:37:32.362Z,98346.63
2018-07-08T09:40:01.395Z,98342.72
2018-07-08T09:42:31.151Z,98341.67
2018-07-08T09:45:02.100Z,98341.75
2018-07-08T09:47:33.670Z,98341.92
2018-07-08T09:50:03.865Z,98340.73
2018-07-08T09:52:34.919Z,98343.94
2018-07-08T09:55:05.676Z,98339.55
2018-07-08T09:57:35.067Z,98347.33
2018-07-08T10:00:05.009Z,98338.83
2018-07-08T10:02:39.494Z,98337.64
2018-07-08T10:05:08.914Z,98335.53
2018-07-08T10:07:38.956Z,98337.75
2018-07-08T10:10:12.713Z,98336.88
2018-07-08T10:12:42.640Z,98341.44
2018-07-08T10:15:12.072Z,98335.95
2018-07-08T10:17:41.503Z,98340.94
2018-07-08T10:20:10.871Z,98339.14
2018-07-08T10:22:40.561Z,98343.17
2018-07-08T10:25:10.915Z,98338.27
2018-07-08T10:28:15.468Z,98337.83
2018-07-08T10:30:47.841Z,98334.80
2018-07-08T10:33:19.500Z,98334.35
2018-07-08T10:36:04.395Z,98332.11
2018-07-08T10:38:35.547Z,98333.38
2018-07-08T10:41:05.071Z,98336.73
2018-07-08T10:43:35.830Z,98340.29
2018-07-08T10:46:07.190Z,98337.88
2018-07-08T10:49:09.273Z,98325.14
2018-07-08T10:51:42.670Z,98329.58
2018-07-08T10:54:13.464Z,98319.31
2018-07-08T10:56:45.857Z,98326.89
2018-07-08T10:59:16.882Z,98325.59
2018-07-08T11:01:47.838Z,98324.91
2018-07-08T11:04:18.836Z,98318.23
2018-07-08T11:06:49.829Z,98315.55
2018-07-08T11:09:20.675Z,98310.48
2018-07-08T11:11:51.413Z,98313.23
2018-07-08T11:14:23.733Z,98310.67
2018-07-08T11:16:56.019Z,98305.03
2018-07-08T11:19:28.320Z,98307.02
2018-07-08T11:22:12.560Z,98306.28
2018-07-08T11:24:50.686Z,98310.39
2018-07-08T11:27:41.657Z,98300.05
2018-07-08T11:30:17.026Z,98297.59
2018-07-08T11:32:46.567Z,98294.34
2018-07-08T11:35:16.273Z,98289.39
2018-07-08T11:37:46.109Z,98297.92
2018-07-08T11:40:15.660Z,98300.36
2018-07-08T11:42:45.867Z,98299.57
2018-07-08T11:45:17.059Z,98303.00
2018-07-08T11:47:47.492Z,98300.27
2018-07-08T11:50:17.976Z,98300.04
2018-07-08T11:52:48.525Z,98301.30
2018-07-08T11:55:19.395Z,98307.06
2018-07-08T11:57:51.213Z,98290.81
2018-07-08T12:00:26.525Z,98296.98
2018-07-08T12:02:59.123Z,98299.11
2018-07-08T12:05:30.480Z,98296.64
2018-07-08T12:08:04.461Z,98293.52
2018-07-08T12:10:35.489Z,98294.23
2018-07-08T12:13:07.991Z,98288.44
2018-07-08T12:15:38.190Z,98295.55
2018-07-08T12:18:08.634Z,98284.72
2018-07-08T12:20:39.192Z,98285.75
2018-07-08T12:23:09.363Z,98286.45
2018-07-08T12:25:39.480Z,98283.44
2018-07-08T12:28:09.601Z,98290.16
2018-07-08T12:30:39.736Z,98289.11
2018-07-08T12:33:10.815Z,98291.47
2018-07-08T12:35:41.006Z,98290.95
2018-07-08T12:38:12.940Z,98294.94
2018-07-08T12:40:42.704Z,98296.16
2018-07-08T12:43:14.617Z,98290.22
2018-07-08T12:45:45.556Z,98292.88
2018-07-08T12:48:15.816Z,98291.05
2018-07-08T12:50:48.138Z,98280.47
2018-07-08T12:53:19.649Z,98274.67
2018-07-08T12:55:52.079Z,98280.64
2018-07-08T12:58:22.394Z,98278.45
2018-07-08T13:00:52.624Z,98266.77
2018-07-08T13:03:22.938Z,98280.34
2018-07-08T13:05:53.146Z,98280.68
2018-07-08T13:08:23.140Z,98262.13
2018-07-08T13:10:53.161Z,98272.13
2018-07-08T13:13:23.114Z,98261.55
2018-07-08T13:15:53.190Z,98272.58
2018-07-08T13:18:23.224Z,98274.13
2018-07-08T13:20:53.993Z,98271.35
2018-07-08T13:23:24.094Z,98266.64
2018-07-08T13:25:54.098Z,98278.16
2018-07-08T13:28:24.120Z,98264.69
2018-07-08T13:30:54.169Z,98277.34
2018-07-08T13:33:24.771Z,98267.80
2018-07-08T13:35:55.021Z,98275.44
2018-07-08T13:38:24.990Z,98276.81
2018-07-08T13:40:55.109Z,98270.89
2018-07-08T13:43:25.095Z,98276.58
2018-07-08T13:45:55.464Z,98262.87
2018-07-08T13:48:25.689Z,98277.04
2018-07-08T13:50:55.985Z,98272.02
2018-07-08T13:53:26.744Z,98267.91
2018-07-08T13:55:56.937Z,98270.70
2018-07-08T13:58:26.903Z,98274.75
2018-07-08T14:00:56.974Z,98268.77
2018-07-08T14:03:27.035Z,98260.52
2018-07-08T14:05:56.921Z,98267.23
2018-07-08T14:08:27.963Z,98267.44
2018-07-08T14:10:57.973Z,98264.00
2018-07-08T14:13:28.213Z,98270.75
2018-07-08T14:15:57.866Z,98264.96
2018-07-08T14:18:27.706Z,98265.50
2018-07-08T14:20:57.627Z,98257.13
2018-07-08T14:23:27.527Z,98260.60
2018-07-08T14:25:57.429Z,98259.16
2018-07-08T14:28:28.683Z,98254.30
2018-07-08T14:30:58.397Z,98252.19
2018-07-08T14:33:29.241Z,98261.17
2018-07-08T14:35:59.056Z,98255.80
2018-07-08T14:38:28.746Z,98248.64
2018-07-08T14:40:58.722Z,98245.11
2018-07-08T14:43:28.875Z,98247.55
2018-07-08T14:46:00.094Z,98242.49
2018-07-08T14:48:29.999Z,98247.22
2018-07-08T14:50:59.981Z,98249.34
2018-07-08T14:53:30.130Z,98249.69
2018-07-08T14:55:59.999Z,98253.19
2018-07-08T14:58:29.799Z,98260.56
2018-07-08T15:00:59.943Z,98258.03
2018-07-08T15:03:30.820Z,98259.23
2018-07-08T15:06:00.655Z,98252.53
2018-07-08T15:08:30.914Z,98255.27
2018-07-08T15:11:00.614Z,98248.69
2018-07-08T15:13:30.507Z,98249.49
2018-07-08T15:16:00.659Z,98245.62
2018-07-08T15:18:30.443Z,98241.37
2018-07-08T15:21:00.307Z,98243.72
2018-07-08T15:23:30.105Z,98238.23
2018-07-08T15:26:00.273Z,98242.48
2018-07-08T15:28:30.232Z,98242.59
2018-07-08T15:31:01.065Z,98243.52
2018-07-08T15:33:31.070Z,98242.22
2018-07-08T15:36:01.219Z,98237.31
2018-07-08T15:38:32.605Z,98243.92
2018-07-08T15:41:02.432Z,98238.02
2018-07-08T15:43:32.427Z,98237.15
2018-07-08T15:46:02.273Z,98236.36
2018-07-08T15:48:33.301Z,98238.02
2018-07-08T15:51:03.759Z,98234.92
2018-07-08T15:53:33.732Z,98239.67
2018-07-08T15:56:03.722Z,98245.59
2018-07-08T15:58:33.544Z,98238.39
2018-07-08T16:01:03.532Z,98232.61
2018-07-08T16:03:33.515Z,98224.75
2018-07-08T16:06:03.810Z,98228.59
2018-07-08T16:08:33.816Z,98232.62
2018-07-08T16:11:03.786Z,98230.67
2018-07-08T16:13:34.635Z,98233.08
2018-07-08T16:16:04.712Z,98234.11
2018-07-08T16:18:34.879Z,98232.25
2018-07-08T16:21:05.286Z,98230.70
2018-07-08T16:23:35.312Z,98223.75
2018-07-08T16:26:05.089Z,98225.80
2018-07-08T16:28:34.485Z,98226.36
2018-07-08T16:31:04.070Z,98214.97
2018-07-08T16:33:33.411Z,98222.70
2018-07-08T16:36:02.786Z,98226.48
2018-07-08T16:38:32.049Z,98214.88
2018-07-08T16:41:01.369Z,98219.95
2018-07-08T16:43:30.637Z,98222.13
2018-07-08T16:46:00.794Z,98224.17
2018-07-08T16:48:30.119Z,98223.31
2018-07-08T16:50:59.473Z,98221.66
2018-07-08T16:53:28.771Z,98225.02
2018-07-08T16:55:58.100Z,98226.84
2018-07-08T16:58:27.395Z,98222.56
2018-07-08T17:00:56.732Z,98226.59
2018-07-08T17:03:25.991Z,98228.77
2018-07-08T17:05:55.351Z,98221.50
2018-07-08T17:08:24.728Z,98214.91
2018-07-08T17:10:53.758Z,98217.28
2018-07-08T17:13:23.063Z,98210.05
2018-07-08T17:15:52.415Z,98209.56
2018-07-08T17:18:22.345Z,98216.01
2018-07-08T17:20:51.835Z,98215.86
2018-07-08T17:23:21.198Z,98218.83
2018-07-08T17:25:50.633Z,98216.63
2018-07-08T17:28:19.967Z,98213.18
2018-07-08T17:30:49.301Z,98211.11
2018-07-08T17:33:18.839Z,98221.47
2018-07-08T17:35:47.848Z,98218.08
2018-07-08T17:38:17.185Z,98215.16
2018-07-08T17:40:46.544Z,98207.98
2018-07-08T17:43:15.950Z,98212.10
2018-07-08T17:45:45.343Z,98211.39
2018-07-08T17:48:14.651Z,98212.99
2018-07-08T17:50:44.011Z,98216.08
2018-07-08T17:53:13.328Z,98223.21
2018-07-08T17:55:42.681Z,98216.36
2018-07-08T17:58:11.956Z,98221.30
2018-07-08T18:00:41.243Z,98224.00
2018-07-08T18:03:10.602Z,98216.58
2018-07-08T18:05:40.139Z,98220.81
2018-07-08T18:08:09.519Z,98216.11
2018-07-08T18:10:38.900Z,98224.14
2018-07-08T18:13:08.555Z,98216.06
2018-07-08T18:15:38.560Z,98221.47
2018-07-08T18:18:08.219Z,98226.52
2018-07-08T18:20:38.358Z,98225.17
2018-07-08T18:23:07.795Z,98224.22
2018-07-08T18:25:37.140Z,98223.58
2018-07-08T18:28:06.532Z,98226.50
2018-07-08T18:30:36.726Z,98225.97
2018-07-08T18:33:06.710Z,98226.80
2018-07-08T18:35:36.104Z,98228.58
2018-07-08T18:38:05.563Z,98230.97
2018-07-08T18:40:34.970Z,98231.97
2018-07-08T18:43:04.379Z,98231.50
2018-07-08T18:45:33.750Z,98228.64
2018-07-08T18:48:02.783Z,98232.72
2018-07-08T18:50:32.115Z,98227.63
2018-07-08T18:53:01.429Z,98232.88
2018-07-08T18:55:30.778Z,98233.23
2018-07-08T18:58:00.265Z,98234.08
2018-07-08T19:00:29.765Z,98235.56
2018-07-08T19:02:59.183Z,98236.64
2018-07-08T19:05:28.479Z,98242.08
2018-07-08T19:07:57.826Z,98237.70
2018-07-08T19:10:27.311Z,98242.04
2018-07-08T19:12:56.771Z,98243.25
2018-07-08T19:15:26.271Z,98249.52
2018-07-08T19:17:55.780Z,98243.27
2018-07-08T19:20:25.239Z,98244.64
2018-07-08T19:22:54.694Z,98255.91
2018-07-08T19:25:24.272Z,98244.27
2018-07-08T19:27:53.709Z,98248.77
2018-07-08T19:30:23.155Z,98241.31
2018-07-08T19:32:52.688Z,98247.90
2018-07-08T19:35:22.205Z,98253.11
2018-07-08T19:37:51.660Z,98256.05
2018-07-08T19:40:21.234Z,98255.43
2018-07-08T19:42:50.739Z,98260.89
2018-07-08T19:45:20.372Z,98260.98
2018-07-08T19:47:50.078Z,98269.61
2018-07-08T19:50:19.616Z,98264.95
2018-07-08T19:52:49.133Z,98269.57
2018-07-08T19:55:18.590Z,98272.61
2018-07-08T19:57:48.153Z,98271.91
2018-07-08T20:00:17.655Z,98281.14
2018-07-08T20:02:47.100Z,98274.59
2018-07-08T20:05:16.658Z,98276.71
2018-07-08T20:07:46.504Z,98275.76
2018-07-08T20:10:16.078Z,98277.02
2018-07-08T20:12:45.636Z,98284.16
2018-07-08T20:15:15.127Z,98284.78
2018-07-08T20:17:45.067Z,98282.14
2018-07-08T20:20:15.244Z,98281.58
2018-07-08T20:22:44.673Z,98286.65
2018-07-08T20:25:14.413Z,98273.31
2018-07-08T20:27:44.272Z,98276.69
2018-07-08T20:30:13.829Z,98277.77
2018-07-08T20:32:43.112Z,98281.05
2018-07-08T20:35:12.519Z,98283.21
2018-07-08T20:37:41.853Z,98284.42
2018-07-08T20:40:11.200Z,98289.41
2018-07-08T20:42:40.676Z,98287.56
2018-07-08T20:45:10.139Z,98287.02
2018-07-08T20:47:39.556Z,98287.88
2018-07-08T20:50:08.981Z,98282.83
2018-07-08T20:52:38.463Z,98276.41
2018-07-08T20:55:07.947Z,98279.44
2018-07-08T20:57:37.512Z,98279.72
2018-07-08T21:00:06.696Z,98278.09
2018-07-08T21:02:36.096Z,98278.74
2018-07-08T21:05:05.461Z,98279.31
2018-07-08T21:07:34.857Z,98283.92
2018-07-08T21:10:04.285Z,98283.42
2018-07-08T21:12:33.599Z,98283.52
2018-07-08T21:15:06.310Z,98279.77
2018-07-08T21:17:35.641Z,98284.66
2018-07-08T21:20:05.012Z,98280.34
2018-07-08T21:22:34.555Z,98281.36
2018-07-08T21:25:03.903Z,98275.50
2018-07-08T21:27:33.478Z,98281.15
2018-07-08T21:30:03.050Z,98275.58
2018-07-08T21:32:32.364Z,98279.97
2018-07-08T21:35:01.655Z,98277.81
2018-07-08T21:37:30.968Z,98280.23
2018-07-08T21:40:00.254Z,98286.18
2018-07-08T21:42:29.574Z,98281.63
2018-07-08T21:44:58.881Z,98282.13
2018-07-08T21:47:27.938Z,98281.87
2018-07-08T21:49:57.306Z,98280.30
2018-07-08T21:52:26.619Z,98279.78
2018-07-08T21:54:55.999Z,98286.23
2018-07-08T21:57:25.356Z,98281.77
2018-07-08T21:59:54.482Z,98279.37
2018-07-08T22:02:23.798Z,98275.09
2018-07-08T22:04:53.031Z,98281.27
2018-07-08T22:07:23.497Z,98284.20
2018-07-08T22:09:54.037Z,98282.07
2018-07-08T22:12:23.275Z,98284.23
2018-07-08T22:14:52.238Z,98285.53
2018-07-08T22:17:21.482Z,98289.30
2018-07-08T22:19:50.736Z,98289.87
2018-07-08T22:22:20.002Z,98289.64
2018-07-08T22:24:49.244Z,98286.45
2018-07-08T22:27:18.500Z,98285.14
2018-07-08T22:29:47.775Z,98278.70
2018-07-08T22:32:17.006Z,98281.67
2018-07-08T22:34:46.392Z,98285.71
2018-07-08T22:37:15.677Z,98284.11
2018-07-08T22:39:44.908Z,98282.48
2018-07-08T22:42:14.188Z,98278.72
2018-07-08T22:44:43.443Z,98278.72
2018-07-08T22:47:12.667Z,98274.45
2018-07-08T22:49:41.875Z,98274.41
2018-07-08T22:52:11.103Z,98273.64
2018-07-08T22:54:40.342Z,98274.42
2018-07-08T22:57:09.583Z,98274.14
2018-07-08T22:59:55.852Z,98276.56
2018-07-08T23:02:38.280Z,98277.67
2018-07-08T23:05:07.512Z,98281.42
2018-07-08T23:07:36.763Z,98276.02
2018-07-08T23:10:05.979Z,98275.22
2018-07-08T23:12:35.251Z,98274.40
2018-07-08T23:15:04.611Z,98272.25
2018-07-08T23:17:33.907Z,98267.66
2018-07-08T23:20:03.391Z,98265.23
2018-07-08T23:22:49.862Z,98277.32
2018-07-08T23:25:19.073Z,98264.11
2018-07-08T23:27:48.341Z,98261.45
2018-07-08T23:30:17.563Z,98266.28
2018-07-08T23:32:46.839Z,98264.93
2018-07-08T23:35:16.161Z,98267.12
2018-07-08T23:37:45.461Z,98267.42
2018-07-08T23:40:14.785Z,98260.98
2018-07-08T23:42:44.801Z,98259.64
2018-07-08T23:45:19.489Z,98258.05
2018-07-08T23:47:48.754Z,98258.05
2018-07-08T23:50:18.011Z,98259.14
2018-07-08T23:52:46.991Z,98261.00
2018-07-08T23:55:16.248Z,98255.91
2018-07-08T23:57:45.510Z,98250.00
